createdAt,value
2022-12-20T00:01:30.085Z,77.70
2022-12-20T00:04:34.438Z,77.60
2022-12-20T00:07:37.951Z,77.70
2022-12-20T00:10:44.009Z,77.70
2022-12-20T00:13:48.304Z,77.70
2022-12-20T00:16:51.170Z,77.70
2022-12-20T00:19:55.646Z,78.70
2022-12-20T00:22:58.634Z,77.60
2022-12-20T00:26:05.119Z,77.70
2022-12-20T00:29:08.636Z,77.90
2022-12-20T00:32:11.840Z,77.80
2022-12-20T00:35:16.286Z,78.40
2022-12-20T00:38:19.878Z,77.80
2022-12-20T00:41:26.092Z,77.80
2022-12-20T00:44:29.977Z,77.70
2022-12-20T00:47:33.575Z,77.70
2022-12-20T00:50:38.652Z,77.70
2022-12-20T00:53:42.801Z,78.20
2022-12-20T00:56:45.696Z,78.10
2022-12-20T00:59:48.693Z,79.10
2022-12-20T01:02:51.904Z,77.60
2022-12-20T01:05:59.201Z,77.70
2022-12-20T01:09:02.652Z,77.70
2022-12-20T01:12:06.045Z,77.60
2022-12-20T01:15:10.959Z,77.50
2022-12-20T01:18:14.032Z,77.60
2022-12-20T01:21:21.715Z,77.60
2022-12-20T01:24:24.702Z,77.60
2022-12-20T01:27:28.819Z,77.50
2022-12-20T01:30:31.682Z,77.60
2022-12-20T01:33:34.917Z,78.30
2022-12-20T01:36:39.678Z,77.40
2022-12-20T01:39:42.753Z,77.50
2022-12-20T01:42:45.720Z,77.60
2022-12-20T01:45:49.018Z,77.40
2022-12-20T01:48:59.159Z,77.50
2022-12-20T01:52:10.035Z,77.60
2022-12-20T01:55:19.792Z,78.00
2022-12-20T01:58:23.499Z,77.60
2022-12-20T02:01:27.088Z,77.50
2022-12-20T02:04:30.346Z,77.60
2022-12-20T02:07:36.923Z,77.50
2022-12-20T02:11:00.866Z,77.60
2022-12-20T02:14:20.046Z,77.80
2022-12-20T02:17:37.644Z,77.70
2022-12-20T02:21:15.386Z,77.60
2022-12-20T02:25:00.745Z,78.00
2022-12-20T02:28:23.013Z,78.20
2022-12-20T02:31:39.379Z,77.60
2022-12-20T02:34:43.913Z,77.90
2022-12-20T02:37:52.960Z,77.70
2022-12-20T02:41:03.233Z,77.20
2022-12-20T02:44:29.644Z,77.80
2022-12-20T02:47:41.018Z,77.70
2022-12-20T02:50:50.266Z,77.40
2022-12-20T02:53:53.996Z,78.00
2022-12-20T02:57:05.420Z,76.90
2022-12-20T03:00:14.422Z,77.60
2022-12-20T03:03:25.257Z,77.60
2022-12-20T03:06:29.537Z,77.50
2022-12-20T03:09:35.248Z,77.40
2022-12-20T03:12:38.329Z,78.20
2022-12-20T03:15:41.627Z,77.40
2022-12-20T03:18:46.353Z,77.50
2022-12-20T03:21:49.407Z,77.60
2022-12-20T03:24:52.868Z,77.60
2022-12-20T03:27:55.894Z,77.60
2022-12-20T03:30:58.920Z,77.70
2022-12-20T03:34:03.902Z,77.60
2022-12-20T03:37:06.931Z,77.70
2022-12-20T03:40:12.448Z,77.70
2022-12-20T03:43:15.489Z,77.80
2022-12-20T03:46:19.054Z,78.20
2022-12-20T03:49:23.483Z,77.90
2022-12-20T03:52:26.450Z,77.60
2022-12-20T03:55:30.170Z,77.80
2022-12-20T03:58:33.153Z,77.80
2022-12-20T04:01:38.526Z,77.80
2022-12-20T04:04:43.406Z,77.70
2022-12-20T04:07:46.418Z,77.90
2022-12-20T04:11:03.571Z,77.60
2022-12-20T04:14:07.213Z,77.60
2022-12-20T04:17:10.294Z,77.80
2022-12-20T04:20:20.890Z,77.70
2022-12-20T04:23:23.927Z,77.90
2022-12-20T04:26:27.462Z,77.60
2022-12-20T04:29:30.873Z,77.80
2022-12-20T04:32:33.942Z,77.70
2022-12-20T04:35:39.093Z,77.70
2022-12-20T04:38:42.333Z,77.80
2022-12-20T04:41:45.420Z,77.80
2022-12-20T04:44:48.458Z,77.80
2022-12-20T04:47:51.487Z,77.70
2022-12-20T04:50:56.945Z,77.70
2022-12-20T04:53:59.097Z,78.30
2022-12-20T04:57:02.257Z,77.60
2022-12-20T05:00:06.523Z,77.80
2022-12-20T05:03:09.987Z,77.50
2022-12-20T05:06:15.700Z,77.40
2022-12-20T05:09:18.851Z,77.80
2022-12-20T05:12:21.864Z,77.70
2022-12-20T05:15:24.952Z,77.50
2022-12-20T05:18:28.922Z,77.50
2022-12-20T05:21:51.259Z,77.50
2022-12-20T05:25:12.104Z,77.70
2022-12-20T05:28:15.835Z,77.60
2022-12-20T05:31:19.064Z,77.50
2022-12-20T05:34:22.681Z,77.60
2022-12-20T05:37:27.141Z,77.70
2022-12-20T05:40:30.166Z,77.60
2022-12-20T05:43:33.948Z,77.70
2022-12-20T05:46:37.423Z,77.70
2022-12-20T05:49:40.802Z,77.80
2022-12-20T05:52:45.255Z,78.30
2022-12-20T05:55:52.188Z,78.00
2022-12-20T05:58:55.283Z,78.00
2022-12-20T06:01:59.332Z,77.90
2022-12-20T06:05:02.761Z,77.90
2022-12-20T06:08:07.997Z,78.60
2022-12-20T06:11:11.488Z,77.40
2022-12-20T06:14:14.729Z,77.80
2022-12-20T06:17:20.029Z,77.80
2022-12-20T06:20:23.111Z,77.90
2022-12-20T06:23:27.626Z,77.90
2022-12-20T06:26:36.057Z,78.00
2022-12-20T06:29:39.171Z,78.00
2022-12-20T06:32:42.334Z,78.00
2022-12-20T06:35:45.501Z,78.10
2022-12-20T06:38:49.841Z,78.00
2022-12-20T06:41:52.793Z,78.60
2022-12-20T06:44:55.722Z,78.00
2022-12-20T06:47:59.377Z,78.00
2022-12-20T06:51:02.774Z,77.90
2022-12-20T06:54:07.175Z,77.90
2022-12-20T06:57:10.382Z,78.00
2022-12-20T07:00:15.141Z,77.90
2022-12-20T07:03:18.349Z,77.90
2022-12-20T07:06:21.406Z,77.90
2022-12-20T07:09:25.880Z,77.80
2022-12-20T07:12:28.945Z,77.90
2022-12-20T07:15:32.034Z,77.20
2022-12-20T07:18:36.404Z,77.80
2022-12-20T07:21:39.885Z,77.80
2022-12-20T07:24:44.178Z,78.50
2022-12-20T07:27:49.780Z,77.70
2022-12-20T07:30:53.270Z,77.80
2022-12-20T07:33:56.339Z,78.00
2022-12-20T07:36:59.410Z,78.00
2022-12-20T07:40:03.949Z,77.90
2022-12-20T07:43:06.987Z,77.70
2022-12-20T07:46:13.563Z,77.60
2022-12-20T07:49:16.709Z,77.70
2022-12-20T07:52:24.803Z,77.80
2022-12-20T07:55:31.237Z,77.80
2022-12-20T07:58:37.061Z,77.10
2022-12-20T08:01:42.212Z,77.70
2022-12-20T08:04:45.955Z,77.80
2022-12-20T08:07:56.856Z,77.80
2022-12-20T08:11:04.824Z,77.80
2022-12-20T08:14:09.179Z,78.30
2022-12-20T08:17:12.303Z,77.60
2022-12-20T08:20:16.137Z,77.70
2022-12-20T08:23:19.479Z,77.80
2022-12-20T08:26:24.114Z,77.80
2022-12-20T08:29:28.236Z,77.80
2022-12-20T08:32:31.675Z,77.40
2022-12-20T08:35:35.232Z,78.40
2022-12-20T08:38:38.984Z,77.70
2022-12-20T08:41:43.614Z,77.70
2022-12-20T08:44:46.684Z,77.80
2022-12-20T08:47:49.638Z,77.80
2022-12-20T08:50:57.495Z,77.80
2022-12-20T08:54:00.576Z,78.00
2022-12-20T08:57:05.080Z,77.90
2022-12-20T09:00:10.083Z,78.00
2022-12-20T09:03:15.329Z,78.00
2022-12-20T09:06:21.415Z,78.00
2022-12-20T09:09:24.608Z,78.00
2022-12-20T09:12:29.018Z,78.20
2022-12-20T09:15:31.991Z,78.30
2022-12-20T09:18:36.460Z,78.40
2022-12-20T09:21:39.523Z,78.40
2022-12-20T09:24:42.835Z,78.40
2022-12-20T09:27:47.173Z,78.40
2022-12-20T09:30:50.128Z,78.50
2022-12-20T09:33:56.129Z,78.40
2022-12-20T09:36:59.310Z,78.50
2022-12-20T09:40:02.469Z,79.10
2022-12-20T09:43:11.020Z,78.40
2022-12-20T09:46:17.080Z,78.60
2022-12-20T09:49:20.783Z,78.50
2022-12-20T09:52:40.253Z,78.40
2022-12-20T09:55:54.577Z,78.60
2022-12-20T09:59:02.675Z,78.60
2022-12-20T10:02:53.841Z,79.00
2022-12-20T10:05:46.557Z,78.40
2022-12-20T10:08:57.978Z,78.40
2022-12-20T10:12:17.330Z,78.40
2022-12-20T10:15:30.076Z,78.40
2022-12-20T10:18:53.072Z,78.40
2022-12-20T10:22:08.802Z,78.50
2022-12-20T10:25:20.263Z,78.50
2022-12-20T10:28:29.917Z,78.40
2022-12-20T10:31:35.841Z,78.30
2022-12-20T10:34:43.527Z,78.20
2022-12-20T10:38:08.705Z,78.20
2022-12-20T10:41:22.151Z,78.20
2022-12-20T10:44:29.296Z,78.00
2022-12-20T10:47:44.049Z,77.90
2022-12-20T10:50:58.604Z,77.80
2022-12-20T10:54:04.758Z,77.80
2022-12-20T10:57:21.402Z,77.70
2022-12-20T11:00:32.002Z,77.80
2022-12-20T11:03:53.603Z,77.60
2022-12-20T11:06:57.812Z,77.80
2022-12-20T11:10:02.495Z,77.60
2022-12-20T11:13:06.228Z,78.00
2022-12-20T11:16:27.100Z,77.50
2022-12-20T11:19:56.480Z,77.60
2022-12-20T11:23:18.367Z,77.60
2022-12-20T11:26:42.782Z,77.20
2022-12-20T11:30:12.935Z,77.70
2022-12-20T11:33:39.051Z,77.40
2022-12-20T11:37:13.018Z,77.80
2022-12-20T11:40:32.065Z,77.80
2022-12-20T11:44:25.350Z,77.80
2022-12-20T11:47:51.227Z,77.80
2022-12-20T11:51:06.149Z,78.00
2022-12-20T11:54:21.747Z,77.70
2022-12-20T11:57:48.373Z,77.60
2022-12-20T12:01:05.090Z,77.70
2022-12-20T12:04:15.954Z,77.60
2022-12-20T12:07:24.919Z,77.90
2022-12-20T12:10:38.371Z,77.70
2022-12-20T12:13:44.995Z,77.80
2022-12-20T12:16:53.933Z,77.80
2022-12-20T12:20:21.543Z,77.90
2022-12-20T12:23:31.393Z,77.90
2022-12-20T12:26:39.424Z,78.00
2022-12-20T12:29:42.770Z,78.00
2022-12-20T12:32:54.187Z,78.60
2022-12-20T12:36:33.338Z,78.30
2022-12-20T12:40:25.754Z,78.20
2022-12-20T12:43:49.378Z,78.40
2022-12-20T12:47:01.913Z,78.30
2022-12-20T12:50:16.855Z,78.50
2022-12-20T12:53:24.955Z,77.90
2022-12-20T12:56:45.859Z,77.90
2022-12-20T12:59:52.688Z,77.50
2022-12-20T13:02:55.948Z,78.30
2022-12-20T13:05:59.046Z,77.80
2022-12-20T13:09:22.253Z,77.90
2022-12-20T13:13:01.024Z,77.80
2022-12-20T13:17:09.344Z,77.60
2022-12-20T13:19:57.558Z,77.70
2022-12-20T13:23:18.279Z,77.50
2022-12-20T13:26:49.607Z,77.30
2022-12-20T13:30:02.484Z,77.20
2022-12-20T13:33:41.731Z,77.20
2022-12-20T13:36:44.915Z,77.10
2022-12-20T13:39:49.361Z,77.10
2022-12-20T13:42:56.861Z,77.10
2022-12-20T13:46:15.540Z,77.10
2022-12-20T13:49:26.671Z,77.20
2022-12-20T13:52:32.939Z,77.20
2022-12-20T13:55:39.131Z,77.20
2022-12-20T13:58:47.001Z,77.10
2022-12-20T14:01:52.341Z,77.00
2022-12-20T14:05:03.163Z,76.90
2022-12-20T14:08:10.293Z,76.80
2022-12-20T14:11:16.821Z,76.80
2022-12-20T14:14:19.665Z,76.70
2022-12-20T14:17:28.464Z,76.80
2022-12-20T14:20:35.924Z,77.20
2022-12-20T14:23:42.414Z,77.40
2022-12-20T14:26:50.704Z,77.50
2022-12-20T14:29:53.578Z,78.10
2022-12-20T14:32:57.343Z,77.60
2022-12-20T14:36:18.220Z,77.60
2022-12-20T14:39:27.546Z,77.90
2022-12-20T14:42:36.536Z,77.90
2022-12-20T14:45:39.557Z,77.80
2022-12-20T14:48:42.508Z,77.80
2022-12-20T14:51:47.919Z,77.80
2022-12-20T14:55:12.554Z,77.90
2022-12-20T14:58:25.757Z,78.00
2022-12-20T15:01:31.045Z,78.40
2022-12-20T15:04:36.562Z,77.70
2022-12-20T15:07:42.679Z,77.80
2022-12-20T15:11:03.348Z,77.90
2022-12-20T15:14:32.852Z,78.00
2022-12-20T15:17:35.663Z,78.10
2022-12-20T15:20:38.581Z,77.90
2022-12-20T15:23:46.852Z,77.90
2022-12-20T15:26:50.220Z,78.00
2022-12-20T15:29:53.080Z,78.00
2022-12-20T15:32:56.253Z,78.00
2022-12-20T15:35:59.180Z,77.90
2022-12-20T15:39:12.471Z,78.00
2022-12-20T15:42:19.284Z,78.00
2022-12-20T15:45:23.430Z,78.10
2022-12-20T15:48:26.110Z,78.00
2022-12-20T15:51:32.766Z,78.50
2022-12-20T15:54:38.288Z,77.80
2022-12-20T15:57:41.335Z,77.80
2022-12-20T16:00:45.095Z,77.70
2022-12-20T16:03:48.162Z,77.60
2022-12-20T16:06:53.555Z,77.50
2022-12-20T16:09:57.759Z,77.40
2022-12-20T16:13:00.453Z,77.40
2022-12-20T16:16:03.284Z,77.60
2022-12-20T16:19:06.140Z,77.10
2022-12-20T16:22:16.630Z,76.90
2022-12-20T16:25:29.763Z,76.70
2022-12-20T16:28:32.643Z,76.40
2022-12-20T16:31:39.199Z,76.50
2022-12-20T16:34:42.105Z,76.50
2022-12-20T16:37:45.063Z,76.60
2022-12-20T16:40:49.707Z,76.70
2022-12-20T16:43:52.940Z,77.00
2022-12-20T16:46:56.136Z,77.00
2022-12-20T16:49:59.546Z,77.80
2022-12-20T16:53:02.571Z,77.50
2022-12-20T16:56:08.445Z,78.20
2022-12-20T16:59:21.369Z,78.00
2022-12-20T17:02:30.264Z,78.10
2022-12-20T17:05:39.404Z,78.40
2022-12-20T17:12:06.884Z,78.60
2022-12-20T17:15:22.164Z,78.70
2022-12-20T17:18:25.737Z,78.80
2022-12-20T17:24:57.483Z,78.80
2022-12-20T17:28:01.899Z,79.30
2022-12-20T17:31:11.645Z,78.70
2022-12-20T17:34:20.959Z,78.70
2022-12-20T17:37:24.937Z,78.80
2022-12-20T17:40:30.042Z,78.60
2022-12-20T17:43:34.621Z,78.60
2022-12-20T17:46:39.064Z,78.60
2022-12-20T17:49:42.100Z,78.60
2022-12-20T17:52:46.560Z,78.60
2022-12-20T17:55:49.522Z,78.60
2022-12-20T17:58:55.142Z,78.60
2022-12-20T18:01:58.373Z,78.60
2022-12-20T18:05:01.610Z,78.60
2022-12-20T18:08:04.838Z,78.60
2022-12-20T18:11:08.257Z,78.60
2022-12-20T18:14:13.273Z,78.60
2022-12-20T18:17:16.541Z,78.60
2022-12-20T18:20:19.884Z,78.60
2022-12-20T18:23:23.064Z,78.70
2022-12-20T18:26:29.225Z,78.60
2022-12-20T18:29:33.817Z,78.60
2022-12-20T18:32:36.874Z,78.60
2022-12-20T18:35:39.931Z,78.60
2022-12-20T18:38:45.847Z,78.50
2022-12-20T18:41:49.147Z,78.50
2022-12-20T18:44:53.501Z,78.50
2022-12-20T18:47:56.656Z,78.50
2022-12-20T18:51:05.545Z,78.40
2022-12-20T18:54:13.609Z,78.50
2022-12-20T18:57:16.624Z,78.40
2022-12-20T19:00:22.878Z,78.60
2022-12-20T19:03:26.093Z,78.50
2022-12-20T19:06:29.240Z,77.80
2022-12-20T19:09:32.349Z,78.40
2022-12-20T19:12:35.998Z,78.40
2022-12-20T19:15:40.793Z,78.30
2022-12-20T19:18:45.433Z,79.10
2022-12-20T19:21:48.508Z,78.60
2022-12-20T19:24:53.209Z,78.50
2022-12-20T19:27:56.230Z,78.40
2022-12-20T19:31:07.326Z,78.40
2022-12-20T19:34:13.467Z,78.60
2022-12-20T19:37:18.148Z,78.50
2022-12-20T19:40:21.204Z,78.50
2022-12-20T19:43:24.289Z,78.50
2022-12-20T19:46:30.141Z,78.60
2022-12-20T19:49:33.340Z,78.60
2022-12-20T19:52:36.677Z,78.60
2022-12-20T19:55:39.667Z,78.60
2022-12-20T19:58:42.933Z,78.70
2022-12-20T20:01:47.470Z,78.40
2022-12-20T20:04:50.591Z,79.00
2022-12-20T20:07:54.126Z,78.70
2022-12-20T20:11:03.824Z,79.10
2022-12-20T20:14:10.358Z,78.80
2022-12-20T20:17:15.051Z,78.90
2022-12-20T20:20:18.396Z,78.80
2022-12-20T20:23:22.082Z,78.80
2022-12-20T20:26:29.195Z,78.40
2022-12-20T20:29:32.409Z,78.90
2022-12-20T20:32:36.875Z,78.90
2022-12-20T20:35:40.812Z,78.90
2022-12-20T20:38:43.994Z,78.80
2022-12-20T20:41:47.032Z,78.90
2022-12-20T20:44:50.178Z,79.00
2022-12-20T20:47:54.917Z,79.40
2022-12-20T20:50:58.052Z,78.90
2022-12-20T20:54:01.065Z,78.90
2022-12-20T20:57:04.283Z,78.90
2022-12-20T21:00:09.633Z,78.90
2022-12-20T21:03:14.196Z,78.90
2022-12-20T21:06:40.085Z,79.00
2022-12-20T21:09:40.619Z,78.30
2022-12-20T21:12:45.045Z,78.90
2022-12-20T21:15:48.710Z,78.90
2022-12-20T21:18:54.113Z,78.90
2022-12-20T21:21:57.263Z,79.00
2022-12-20T21:25:00.672Z,79.30
2022-12-20T21:28:04.114Z,79.40
2022-12-20T21:31:10.774Z,79.40
2022-12-20T21:34:16.016Z,79.50
2022-12-20T21:37:19.095Z,79.40
2022-12-20T21:40:22.057Z,79.30
2022-12-20T21:43:25.131Z,79.30
2022-12-20T21:46:31.718Z,79.20
2022-12-20T21:49:36.090Z,79.20
2022-12-20T21:52:40.604Z,79.30
2022-12-20T21:55:43.676Z,79.10
2022-12-20T21:58:47.951Z,79.90
2022-12-20T22:01:51.297Z,79.10
2022-12-20T22:04:55.905Z,79.20
2022-12-20T22:07:58.894Z,79.30
2022-12-20T22:11:05.457Z,79.20
2022-12-20T22:14:08.517Z,79.20
2022-12-20T22:17:11.440Z,79.10
2022-12-20T22:20:16.122Z,79.10
2022-12-20T22:23:20.278Z,79.10
2022-12-20T22:26:25.986Z,79.10
2022-12-20T22:29:29.237Z,78.80
2022-12-20T22:32:33.043Z,79.10
2022-12-20T22:35:37.554Z,79.00
2022-12-20T22:38:41.026Z,78.80
2022-12-20T22:41:44.743Z,78.80
2022-12-20T22:44:47.821Z,78.90
2022-12-20T22:47:50.885Z,78.80
2022-12-20T22:51:01.453Z,79.00
2022-12-20T22:54:05.348Z,79.10
2022-12-20T22:57:10.349Z,78.90
2022-12-20T23:00:15.232Z,78.90
2022-12-20T23:03:18.326Z,78.90
2022-12-20T23:06:23.197Z,79.00
2022-12-20T23:09:27.368Z,78.80
2022-12-20T23:12:47.684Z,78.70
2022-12-20T23:15:50.719Z,79.10
2022-12-20T23:18:55.411Z,78.50
2022-12-20T23:22:17.713Z,78.50
2022-12-20T23:25:22.034Z,78.40
2022-12-20T23:28:25.314Z,78.80
2022-12-20T23:31:28.397Z,78.20
2022-12-20T23:34:31.424Z,78.00
2022-12-20T23:37:36.058Z,78.00
2022-12-20T23:40:41.720Z,77.90
2022-12-20T23:43:44.812Z,77.80
2022-12-20T23:46:47.829Z,77.60
2022-12-20T23:49:50.993Z,77.60
2022-12-20T23:52:55.286Z,77.70
2022-12-20T23:56:03.632Z,77.70
2022-12-20T23:59:06.616Z,77.90
